createdAt,value
2023-05-09T00:03:27.179Z,101118.75
2023-05-09T00:07:32.118Z,101119.66
2023-05-09T00:11:40.895Z,101125.75
2023-05-09T00:15:44.660Z,101119.72
2023-05-09T00:19:47.977Z,101111.09
2023-05-09T00:23:52.287Z,101105.94
2023-05-09T00:27:55.198Z,101107.69
2023-05-09T00:31:58.563Z,101109.44
2023-05-09T00:36:01.568Z,101106.88
2023-05-09T00:40:09.435Z,101098.25
2023-05-09T00:44:12.639Z,101102.59
2023-05-09T00:48:16.880Z,101103.53
2023-05-09T00:52:23.495Z,101099.22
2023-05-09T00:56:27.760Z,101099.25
2023-05-09T01:00:30.843Z,101101.88
2023-05-09T01:04:33.948Z,101107.09
2023-05-09T01:08:45.730Z,101107.97
2023-05-09T01:12:57.603Z,101103.66
2023-05-09T01:17:06.909Z,101099.34
2023-05-09T01:21:13.299Z,101101.94
2023-05-09T01:25:51.041Z,101093.31
2023-05-09T01:29:59.376Z,101094.19
2023-05-09T01:34:07.060Z,101108.91
2023-05-09T01:38:14.010Z,101107.19
2023-05-09T01:42:19.098Z,101104.59
2023-05-09T01:46:24.236Z,101099.41
2023-05-09T01:50:28.654Z,101097.72
2023-05-09T01:54:32.729Z,101103.78
2023-05-09T01:58:37.741Z,101096.06
2023-05-09T02:02:42.989Z,101093.47
2023-05-09T02:06:50.883Z,101085.69
2023-05-09T02:10:54.458Z,101092.63
2023-05-09T02:14:57.263Z,101083.13
2023-05-09T02:19:01.146Z,101083.13
2023-05-09T02:23:05.806Z,101084.00
2023-05-09T02:27:10.309Z,101090.03
2023-05-09T02:31:15.345Z,101098.66
2023-05-09T02:35:21.111Z,101096.97
2023-05-09T02:39:24.318Z,101090.06
2023-05-09T02:43:27.475Z,101089.19
2023-05-09T02:47:30.704Z,101089.19
2023-05-09T02:51:34.942Z,101080.53
2023-05-09T02:55:38.110Z,101076.22
2023-05-09T02:59:43.243Z,101080.53
2023-05-09T03:03:46.570Z,101093.47
2023-05-09T03:07:51.835Z,101087.41
2023-05-09T03:11:56.480Z,101093.44
2023-05-09T03:16:01.572Z,101082.22
2023-05-09T03:20:05.805Z,101083.88
2023-05-09T03:24:10.162Z,101081.25
2023-05-09T03:28:13.181Z,101092.44
2023-05-09T03:32:16.457Z,101088.06
2023-05-09T03:36:19.289Z,101093.22
2023-05-09T03:40:23.395Z,101093.16
2023-05-09T03:44:26.324Z,101089.59
2023-05-09T03:48:29.268Z,101099.00
2023-05-09T03:52:32.424Z,101093.63
2023-05-09T03:56:37.099Z,101099.50
2023-05-09T04:00:40.559Z,101097.97
2023-05-09T04:04:45.042Z,101103.53
2023-05-09T04:08:48.550Z,101102.97
2023-05-09T04:12:53.062Z,101107.50
2023-05-09T04:16:56.180Z,101095.75
2023-05-09T04:20:58.989Z,101106.22
2023-05-09T04:25:02.349Z,101111.59
2023-05-09T04:29:07.069Z,101100.00
2023-05-09T04:33:10.527Z,101118.06
2023-05-09T04:37:14.193Z,101114.94
2023-05-09T04:41:17.576Z,101108.53
2023-05-09T04:45:24.420Z,101110.44
2023-05-09T04:49:27.392Z,101109.50
2023-05-09T04:53:30.340Z,101104.50
2023-05-09T04:57:33.397Z,101109.09
2023-05-09T05:01:37.599Z,101109.03
2023-05-09T05:05:41.755Z,101111.28
2023-05-09T05:09:44.642Z,101112.34
2023-05-09T05:13:47.670Z,101115.63
2023-05-09T05:17:52.015Z,101116.91
2023-05-09T05:21:54.935Z,101114.75
2023-05-09T05:25:58.033Z,101119.16
2023-05-09T05:30:01.014Z,101119.66
2023-05-09T05:34:05.321Z,101113.81
2023-05-09T05:38:08.333Z,101117.94
2023-05-09T05:42:11.397Z,101114.22
2023-05-09T05:46:14.311Z,101108.69
2023-05-09T05:50:18.942Z,101113.47
2023-05-09T05:54:22.031Z,101117.47
2023-05-09T05:58:25.082Z,101109.13
2023-05-09T06:02:28.208Z,101105.59
2023-05-09T06:06:32.749Z,101116.06
2023-05-09T06:10:44.923Z,101113.06
2023-05-09T06:14:48.349Z,101106.16
2023-05-09T06:18:54.096Z,101109.97
2023-05-09T06:23:00.207Z,101109.53
2023-05-09T06:27:03.170Z,101113.53
2023-05-09T06:31:06.589Z,101109.63
2023-05-09T06:35:09.917Z,101118.81
2023-05-09T06:39:14.803Z,101129.03
2023-05-09T06:43:18.527Z,101111.34
2023-05-09T06:47:21.825Z,101116.91
2023-05-09T06:51:24.702Z,101112.06
2023-05-09T06:55:29.168Z,101101.63
2023-05-09T06:59:31.781Z,101103.72
2023-05-09T07:03:34.653Z,101098.44
2023-05-09T07:07:37.731Z,101109.97
2023-05-09T07:11:42.270Z,101107.84
2023-05-09T07:15:45.141Z,101096.13
2023-05-09T07:19:48.415Z,101091.69
2023-05-09T07:23:51.264Z,101089.81
2023-05-09T07:27:55.359Z,101095.63
2023-05-09T07:31:58.376Z,101091.75
2023-05-09T07:36:01.149Z,101097.72
2023-05-09T07:40:07.196Z,101093.59
2023-05-09T07:44:12.852Z,101078.47
2023-05-09T07:48:15.751Z,101068.97
2023-05-09T07:52:18.793Z,101077.38
2023-05-09T07:56:22.871Z,101062.31
2023-05-09T08:00:27.480Z,101057.31
2023-05-09T08:04:30.116Z,101058.41
2023-05-09T08:08:33.361Z,101044.72
2023-05-09T08:12:36.470Z,101048.81
2023-05-09T08:16:40.720Z,101044.06
2023-05-09T08:20:43.808Z,101038.22
2023-05-09T08:24:46.837Z,101039.22
2023-05-09T08:28:50.589Z,101036.63
2023-05-09T08:32:54.778Z,101040.97
2023-05-09T08:36:58.098Z,101026.00
2023-05-09T08:41:04.359Z,101023.13
2023-05-09T08:45:11.982Z,101018.00
2023-05-09T08:49:17.282Z,101023.19
2023-05-09T08:53:21.740Z,101002.69
2023-05-09T08:57:25.243Z,101000.31
2023-05-09T09:01:29.653Z,101005.06
2023-05-09T09:05:41.921Z,100998.44
2023-05-09T09:09:50.848Z,100993.50
2023-05-09T09:13:55.377Z,100994.97
2023-05-09T09:18:03.858Z,100990.78
2023-05-09T09:22:12.335Z,100982.00
2023-05-09T09:26:15.717Z,100979.31
2023-05-09T09:30:22.009Z,100979.81
2023-05-09T09:34:25.617Z,100987.50
2023-05-09T09:38:31.329Z,100969.69
2023-05-09T09:42:45.869Z,100968.91
2023-05-09T09:46:53.867Z,100966.75
2023-05-09T09:50:59.163Z,100974.91
2023-05-09T09:55:04.455Z,100969.91
2023-05-09T09:59:12.305Z,100951.91
2023-05-09T10:03:17.665Z,100954.16
2023-05-09T10:07:24.433Z,100949.47
2023-05-09T10:11:29.128Z,100951.53
2023-05-09T10:15:45.065Z,100945.25
2023-05-09T10:19:53.603Z,100948.09
2023-05-09T10:23:57.083Z,100935.63
2023-05-09T10:28:02.974Z,100940.66
2023-05-09T10:32:13.713Z,100934.72
2023-05-09T10:36:20.750Z,100937.84
2023-05-09T10:40:24.601Z,100940.75
2023-05-09T10:44:29.642Z,100921.31
2023-05-09T10:48:34.535Z,100906.91
2023-05-09T10:53:07.646Z,100907.09
2023-05-09T10:57:11.203Z,100900.06
2023-05-09T11:01:15.472Z,100894.44
2023-05-09T11:05:20.439Z,100888.50
2023-05-09T11:09:28.708Z,100889.50
2023-05-09T11:13:33.857Z,100889.63
2023-05-09T11:17:41.564Z,100880.00
2023-05-09T11:22:02.573Z,100867.28
2023-05-09T11:26:09.628Z,100847.28
2023-05-09T11:30:14.937Z,100839.81
2023-05-09T11:34:21.771Z,100848.72
2023-05-09T11:38:25.929Z,100843.19
2023-05-09T11:42:29.909Z,100829.53
2023-05-09T11:46:33.278Z,100836.72
2023-05-09T11:50:39.097Z,100815.00
2023-05-09T11:54:42.536Z,100812.41
2023-05-09T11:58:47.091Z,100815.88
2023-05-09T12:02:51.334Z,100816.75
2023-05-09T12:06:58.178Z,100823.16
2023-05-09T12:11:09.809Z,100806.59
2023-05-09T12:15:13.848Z,100812.19
2023-05-09T12:19:20.310Z,100797.56
2023-05-09T12:23:24.682Z,100794.22
2023-05-09T12:27:29.148Z,100787.41
2023-05-09T12:31:32.935Z,100796.88
2023-05-09T12:35:36.130Z,100779.78
2023-05-09T12:39:40.425Z,100785.28
2023-05-09T12:43:44.126Z,100768.59
2023-05-09T12:47:47.084Z,100770.44
2023-05-09T12:51:51.283Z,100746.56
2023-05-09T12:56:02.570Z,100754.84
2023-05-09T13:00:07.950Z,100749.84
2023-05-09T13:04:12.678Z,100746.00
2023-05-09T13:08:16.030Z,100748.56
2023-05-09T13:12:20.730Z,100731.03
2023-05-09T13:16:23.953Z,100722.84
2023-05-09T13:20:26.978Z,100717.34
2023-05-09T13:24:29.750Z,100741.13
2023-05-09T13:28:34.261Z,100712.31
2023-05-09T13:32:37.712Z,100704.75
2023-05-09T13:36:40.652Z,100698.06
2023-05-09T13:40:43.899Z,100693.69
2023-05-09T13:44:48.116Z,100695.66
2023-05-09T13:48:51.564Z,100697.88
2023-05-09T13:52:54.712Z,100690.84
2023-05-09T13:56:56.830Z,100675.47
2023-05-09T14:01:01.329Z,100676.38
2023-05-09T14:05:04.590Z,100677.28
2023-05-09T14:09:07.564Z,100651.09
2023-05-09T14:13:11.451Z,100669.13
2023-05-09T14:17:15.993Z,100656.59
2023-05-09T14:21:19.056Z,100668.06
2023-05-09T14:25:24.546Z,100636.38
2023-05-09T14:29:27.673Z,100645.94
2023-05-09T14:33:32.011Z,100648.59
2023-05-09T14:37:35.529Z,100640.16
2023-05-09T14:41:39.114Z,100653.03
2023-05-09T14:45:42.303Z,100649.16
2023-05-09T14:49:47.033Z,100639.97
2023-05-09T14:53:49.666Z,100637.88
2023-05-09T14:57:52.584Z,100627.56
2023-05-09T15:01:55.563Z,100635.09
2023-05-09T15:06:02.683Z,100616.41
2023-05-09T15:10:06.521Z,100616.16
2023-05-09T15:14:09.695Z,100608.41
2023-05-09T15:18:13.502Z,100606.38
2023-05-09T15:22:17.945Z,100598.38
2023-05-09T15:26:20.630Z,100604.22
2023-05-09T15:30:23.444Z,100602.19
2023-05-09T15:34:26.345Z,100597.81
2023-05-09T15:38:31.229Z,100590.78
2023-05-09T15:42:34.558Z,100590.69
2023-05-09T15:46:38.140Z,100589.34
2023-05-09T15:50:41.149Z,100579.19
2023-05-09T15:54:46.430Z,100577.56
2023-05-09T15:58:49.508Z,100567.41
2023-05-09T16:02:52.895Z,100572.25
2023-05-09T16:06:57.634Z,100569.59
2023-05-09T16:11:02.912Z,100557.38
2023-05-09T16:15:07.079Z,100559.06
2023-05-09T16:19:11.103Z,100544.31
2023-05-09T16:23:14.572Z,100543.69
2023-05-09T16:27:19.353Z,100540.84
2023-05-09T16:31:26.572Z,100529.69
2023-05-09T16:35:29.733Z,100531.97
2023-05-09T16:39:32.598Z,100533.13
2023-05-09T16:43:37.345Z,100529.38
2023-05-09T16:47:40.533Z,100520.00
2023-05-09T16:51:43.829Z,100518.94
2023-05-09T16:55:47.246Z,100511.53
2023-05-09T16:59:51.714Z,100518.63
2023-05-09T17:03:55.034Z,100515.34
2023-05-09T17:07:58.030Z,100508.13
2023-05-09T17:12:00.984Z,100517.97
2023-05-09T17:16:05.656Z,100510.50
2023-05-09T17:20:11.763Z,100497.75
2023-05-09T17:24:14.533Z,100500.53
2023-05-09T17:28:17.460Z,100500.56
2023-05-09T17:32:21.699Z,100503.69
2023-05-09T17:36:25.853Z,100504.44
2023-05-09T17:40:29.109Z,100508.88
2023-05-09T17:44:33.009Z,100499.66
2023-05-09T17:48:37.561Z,100494.75
2023-05-09T17:52:40.414Z,100492.78
2023-05-09T17:56:43.098Z,100497.75
2023-05-09T18:00:45.852Z,100505.09
2023-05-09T18:04:50.949Z,100514.78
2023-05-09T18:08:53.846Z,100506.81
2023-05-09T18:12:56.831Z,100496.34
2023-05-09T18:17:00.212Z,100498.56
2023-05-09T18:21:05.666Z,100499.16
2023-05-09T18:25:09.261Z,100493.53
2023-05-09T18:29:12.395Z,100502.66
2023-05-09T18:33:15.434Z,100497.94
2023-05-09T18:37:20.110Z,100499.75
2023-05-09T18:41:24.309Z,100502.72
2023-05-09T18:45:35.779Z,100500.41
2023-05-09T18:49:39.054Z,100503.00
2023-05-09T18:53:43.392Z,100507.00
2023-05-09T18:57:46.922Z,100507.78
2023-05-09T19:01:50.014Z,100503.13
2023-05-09T19:05:52.646Z,100508.41
2023-05-09T19:09:57.931Z,100502.22
2023-05-09T19:14:00.605Z,100493.91
2023-05-09T19:18:03.640Z,100499.16
2023-05-09T19:26:27.814Z,100501.56
2023-05-09T19:30:30.624Z,100495.56
2023-05-09T19:34:33.603Z,100498.94
2023-05-09T19:38:36.655Z,100495.88
2023-05-09T19:42:41.997Z,100492.44
2023-05-09T19:46:45.531Z,100494.72
2023-05-09T19:50:48.787Z,100494.06
2023-05-09T19:54:51.983Z,100489.66
2023-05-09T19:58:56.044Z,100482.16
2023-05-09T20:02:59.332Z,100485.75
2023-05-09T20:07:02.496Z,100486.09
2023-05-09T20:11:05.627Z,100487.94
2023-05-09T20:15:10.481Z,100486.50
2023-05-09T20:19:15.317Z,100484.03
2023-05-09T20:23:18.395Z,100482.56
2023-05-09T20:27:22.076Z,100479.63
2023-05-09T20:31:26.348Z,100478.50
2023-05-09T20:35:32.076Z,100475.88
2023-05-09T20:39:35.262Z,100478.41
2023-05-09T20:43:38.542Z,100479.09
2023-05-09T20:47:42.729Z,100480.50
2023-05-09T20:51:46.226Z,100475.78
2023-05-09T20:55:50.471Z,100481.28
2023-05-09T20:59:53.404Z,100482.75
2023-05-09T21:03:57.854Z,100483.53
2023-05-09T21:08:01.240Z,100477.84
2023-05-09T21:12:04.684Z,100475.81
2023-05-09T21:16:07.661Z,100476.69
2023-05-09T21:20:14.536Z,100476.69
2023-05-09T21:24:17.619Z,100478.88
2023-05-09T21:28:20.871Z,100473.34
2023-05-09T21:32:23.889Z,100474.00
2023-05-09T21:36:28.254Z,100475.56
2023-05-09T21:40:31.318Z,100468.66
2023-05-09T21:44:34.335Z,100468.31
2023-05-09T21:48:36.944Z,100475.69
2023-05-09T21:52:41.353Z,100472.94
2023-05-09T21:56:44.466Z,100468.88
2023-05-09T22:00:47.596Z,100474.84
2023-05-09T22:04:50.202Z,100475.97
2023-05-09T22:08:54.361Z,100469.47
2023-05-09T22:12:57.732Z,100469.72
2023-05-09T22:17:00.493Z,100465.97
2023-05-09T22:21:03.700Z,100476.53
2023-05-09T22:25:08.775Z,100464.00
2023-05-09T22:29:11.756Z,100460.78
2023-05-09T22:33:14.560Z,100450.13
2023-05-09T22:37:17.599Z,100453.00
2023-05-09T22:41:23.065Z,100448.50
2023-05-09T22:45:25.955Z,100449.66
2023-05-09T22:49:28.625Z,100440.63
2023-05-09T22:53:32.959Z,100442.59
2023-05-09T22:57:37.342Z,100448.31
2023-05-09T23:01:40.169Z,100438.34
2023-05-09T23:05:44.098Z,100438.78
2023-05-09T23:09:47.128Z,100427.50
2023-05-09T23:13:51.513Z,100431.88
2023-05-09T23:17:54.736Z,100438.00
2023-05-09T23:21:58.613Z,100431.78
2023-05-09T23:26:01.400Z,100423.44
2023-05-09T23:30:06.243Z,100432.03
2023-05-09T23:34:08.791Z,100427.59
2023-05-09T23:42:35.760Z,100413.75
2023-05-09T23:46:40.142Z,100418.69
2023-05-09T23:50:43.486Z,100411.66
2023-05-09T23:54:46.665Z,100409.22
2023-05-09T23:58:49.361Z,100411.31
